sensor_id;sensor_type;location;lat;lon;timestamp;P1;durP1;ratioP1;P2;durP2;ratioP2
53503;SDS011;39387;50.998;22.340;2023-02-13T00:01:11;34.17;;;13.05;;
53503;SDS011;39387;50.998;22.340;2023-02-13T00:03:39;31.25;;;12.77;;
53503;SDS011;39387;50.998;22.340;2023-02-13T00:06:06;33.17;;;13.43;;
53503;SDS011;39387;50.998;22.340;2023-02-13T00:08:34;28.30;;;13.07;;
53503;SDS011;39387;50.998;22.340;2023-02-13T00:11:01;32.08;;;12.55;;
53503;SDS011;39387;50.998;22.340;2023-02-13T00:13:29;29.02;;;12.68;;
53503;SDS011;39387;50.998;22.340;2023-02-13T00:15:58;27.45;;;11.75;;
53503;SDS011;39387;50.998;22.340;2023-02-13T00:18:26;33.10;;;12.50;;
53503;SDS011;39387;50.998;22.340;2023-02-13T00:20:56;27.83;;;11.85;;
53503;SDS011;39387;50.998;22.340;2023-02-13T00:23:24;29.02;;;12.38;;
53503;SDS011;39387;50.998;22.340;2023-02-13T00:25:51;25.40;;;11.65;;
53503;SDS011;39387;50.998;22.340;2023-02-13T00:28:19;31.85;;;12.30;;
53503;SDS011;39387;50.998;22.340;2023-02-13T00:30:46;32.83;;;12.63;;
53503;SDS011;39387;50.998;22.340;2023-02-13T00:33:14;30.70;;;12.15;;
53503;SDS011;39387;50.998;22.340;2023-02-13T00:35:42;26.23;;;12.00;;
53503;SDS011;39387;50.998;22.340;2023-02-13T00:38:09;26.65;;;11.55;;
53503;SDS011;39387;50.998;22.340;2023-02-13T00:40:36;28.65;;;10.57;;
53503;SDS011;39387;50.998;22.340;2023-02-13T00:43:04;29.60;;;12.15;;
53503;SDS011;39387;50.998;22.340;2023-02-13T00:45:31;26.27;;;11.88;;
53503;SDS011;39387;50.998;22.340;2023-02-13T00:47:58;25.67;;;11.50;;
53503;SDS011;39387;50.998;22.340;2023-02-13T00:50:27;27.25;;;11.80;;
53503;SDS011;39387;50.998;22.340;2023-02-13T00:52:54;30.88;;;13.52;;
53503;SDS011;39387;50.998;22.340;2023-02-13T00:55:22;30.83;;;11.65;;
53503;SDS011;39387;50.998;22.340;2023-02-13T00:57:49;27.13;;;11.60;;
53503;SDS011;39387;50.998;22.340;2023-02-13T01:00:16;27.30;;;11.75;;
53503;SDS011;39387;50.998;22.340;2023-02-13T01:02:44;24.00;;;11.07;;
53503;SDS011;39387;50.998;22.340;2023-02-13T01:05:15;27.95;;;11.82;;
53503;SDS011;39387;50.998;22.340;2023-02-13T01:07:43;24.38;;;11.13;;
53503;SDS011;39387;50.998;22.340;2023-02-13T01:10:11;25.88;;;12.70;;
53503;SDS011;39387;50.998;22.340;2023-02-13T01:12:38;28.80;;;11.73;;
53503;SDS011;39387;50.998;22.340;2023-02-13T01:15:06;33.38;;;13.18;;
53503;SDS011;39387;50.998;22.340;2023-02-13T01:17:33;24.52;;;11.50;;
53503;SDS011;39387;50.998;22.340;2023-02-13T01:20:01;31.85;;;12.02;;
53503;SDS011;39387;50.998;22.340;2023-02-13T01:22:28;24.90;;;11.63;;
53503;SDS011;39387;50.998;22.340;2023-02-13T01:24:57;26.92;;;12.90;;
53503;SDS011;39387;50.998;22.340;2023-02-13T01:27:25;27.80;;;12.77;;
53503;SDS011;39387;50.998;22.340;2023-02-13T01:29:53;27.00;;;12.57;;
53503;SDS011;39387;50.998;22.340;2023-02-13T01:32:20;31.30;;;12.88;;
53503;SDS011;39387;50.998;22.340;2023-02-13T01:34:48;30.30;;;12.25;;
53503;SDS011;39387;50.998;22.340;2023-02-13T01:37:15;34.30;;;14.07;;
53503;SDS011;39387;50.998;22.340;2023-02-13T01:39:42;28.38;;;13.05;;
53503;SDS011;39387;50.998;22.340;2023-02-13T01:42:13;27.77;;;12.65;;
53503;SDS011;39387;50.998;22.340;2023-02-13T01:44:49;28.48;;;12.88;;
53503;SDS011;39387;50.998;22.340;2023-02-13T01:47:21;34.17;;;13.38;;
53503;SDS011;39387;50.998;22.340;2023-02-13T01:49:52;32.38;;;12.93;;
53503;SDS011;39387;50.998;22.340;2023-02-13T01:52:25;29.63;;;12.52;;
53503;SDS011;39387;50.998;22.340;2023-02-13T01:54:53;30.45;;;12.07;;
53503;SDS011;39387;50.998;22.340;2023-02-13T01:57:22;31.40;;;12.95;;
53503;SDS011;39387;50.998;22.340;2023-02-13T01:59:51;28.50;;;12.95;;
53503;SDS011;39387;50.998;22.340;2023-02-13T02:02:20;26.67;;;11.73;;
53503;SDS011;39387;50.998;22.340;2023-02-13T02:04:49;28.10;;;12.40;;
53503;SDS011;39387;50.998;22.340;2023-02-13T02:07:16;30.92;;;13.52;;
53503;SDS011;39387;50.998;22.340;2023-02-13T02:09:45;29.85;;;12.82;;
53503;SDS011;39387;50.998;22.340;2023-02-13T02:12:15;28.85;;;12.02;;
53503;SDS011;39387;50.998;22.340;2023-02-13T02:14:47;27.73;;;12.63;;
53503;SDS011;39387;50.998;22.340;2023-02-13T02:17:15;27.83;;;11.85;;
53503;SDS011;39387;50.998;22.340;2023-02-13T02:19:45;29.80;;;12.90;;
53503;SDS011;39387;50.998;22.340;2023-02-13T02:22:18;26.20;;;10.88;;
53503;SDS011;39387;50.998;22.340;2023-02-13T02:25:17;25.27;;;11.48;;
53503;SDS011;39387;50.998;22.340;2023-02-13T02:33:57;35.13;;;12.93;;
53503;SDS011;39387;50.998;22.340;2023-02-13T02:36:34;35.65;;;14.82;;
53503;SDS011;39387;50.998;22.340;2023-02-13T02:39:11;36.38;;;13.32;;
53503;SDS011;39387;50.998;22.340;2023-02-13T02:41:48;34.20;;;14.18;;
53503;SDS011;39387;50.998;22.340;2023-02-13T02:44:25;32.28;;;13.63;;
53503;SDS011;39387;50.998;22.340;2023-02-13T02:47:01;35.20;;;14.75;;
53503;SDS011;39387;50.998;22.340;2023-02-13T02:49:55;29.50;;;13.20;;
53503;SDS011;39387;50.998;22.340;2023-02-13T02:52:32;31.63;;;13.77;;
53503;SDS011;39387;50.998;22.340;2023-02-13T02:55:09;32.28;;;13.52;;
53503;SDS011;39387;50.998;22.340;2023-02-13T02:57:39;38.53;;;14.93;;
53503;SDS011;39387;50.998;22.340;2023-02-13T03:00:27;35.40;;;15.10;;
53503;SDS011;39387;50.998;22.340;2023-02-13T03:03:14;31.90;;;14.00;;
53503;SDS011;39387;50.998;22.340;2023-02-13T03:06:03;28.48;;;13.05;;
53503;SDS011;39387;50.998;22.340;2023-02-13T03:08:36;37.78;;;16.05;;
53503;SDS011;39387;50.998;22.340;2023-02-13T03:11:21;37.15;;;14.20;;
53503;SDS011;39387;50.998;22.340;2023-02-13T03:14:06;30.52;;;13.63;;
53503;SDS011;39387;50.998;22.340;2023-02-13T03:16:35;33.05;;;13.90;;
53503;SDS011;39387;50.998;22.340;2023-02-13T03:19:21;34.47;;;13.45;;
53503;SDS011;39387;50.998;22.340;2023-02-13T03:22:20;37.38;;;15.30;;
53503;SDS011;39387;50.998;22.340;2023-02-13T03:24:57;35.27;;;14.73;;
53503;SDS011;39387;50.998;22.340;2023-02-13T03:27:33;41.15;;;15.77;;
53503;SDS011;39387;50.998;22.340;2023-02-13T03:30:26;34.13;;;12.82;;
53503;SDS011;39387;50.998;22.340;2023-02-13T03:33:04;33.50;;;13.63;;
53503;SDS011;39387;50.998;22.340;2023-02-13T03:35:39;32.40;;;13.93;;
53503;SDS011;39387;50.998;22.340;2023-02-13T03:38:29;37.20;;;14.90;;
53503;SDS011;39387;50.998;22.340;2023-02-13T03:41:01;31.98;;;13.23;;
53503;SDS011;39387;50.998;22.340;2023-02-13T03:43:47;36.30;;;15.80;;
53503;SDS011;39387;50.998;22.340;2023-02-13T03:46:19;41.20;;;15.15;;
53503;SDS011;39387;50.998;22.340;2023-02-13T03:48:46;40.28;;;15.50;;
53503;SDS011;39387;50.998;22.340;2023-02-13T03:51:32;39.10;;;15.13;;
53503;SDS011;39387;50.998;22.340;2023-02-13T03:54:04;34.78;;;16.05;;
53503;SDS011;39387;50.998;22.340;2023-02-13T03:56:34;33.78;;;13.90;;
53503;SDS011;39387;50.998;22.340;2023-02-13T03:59:21;36.55;;;14.70;;
53503;SDS011;39387;50.998;22.340;2023-02-13T04:01:53;41.03;;;15.32;;
53503;SDS011;39387;50.998;22.340;2023-02-13T04:04:27;38.67;;;15.02;;
53503;SDS011;39387;50.998;22.340;2023-02-13T04:07:01;37.30;;;14.15;;
53503;SDS011;39387;50.998;22.340;2023-02-13T04:09:31;43.70;;;14.52;;
53503;SDS011;39387;50.998;22.340;2023-02-13T04:12:01;37.53;;;15.60;;
53503;SDS011;39387;50.998;22.340;2023-02-13T04:14:35;36.42;;;14.23;;
53503;SDS011;39387;50.998;22.340;2023-02-13T04:17:05;40.03;;;15.23;;
53503;SDS011;39387;50.998;22.340;2023-02-13T04:19:34;32.33;;;13.05;;
53503;SDS011;39387;50.998;22.340;2023-02-13T04:22:02;38.03;;;13.63;;
53503;SDS011;39387;50.998;22.340;2023-02-13T04:24:30;31.02;;;12.68;;
53503;SDS011;39387;50.998;22.340;2023-02-13T04:26:57;37.20;;;14.45;;
53503;SDS011;39387;50.998;22.340;2023-02-13T04:29:25;43.97;;;15.02;;
53503;SDS011;39387;50.998;22.340;2023-02-13T04:31:53;34.17;;;13.45;;
53503;SDS011;39387;50.998;22.340;2023-02-13T04:34:20;33.53;;;12.63;;
53503;SDS011;39387;50.998;22.340;2023-02-13T04:36:47;36.72;;;12.95;;
53503;SDS011;39387;50.998;22.340;2023-02-13T04:39:14;25.50;;;11.02;;
53503;SDS011;39387;50.998;22.340;2023-02-13T04:41:43;29.15;;;11.77;;
53503;SDS011;39387;50.998;22.340;2023-02-13T04:44:10;31.15;;;11.27;;
53503;SDS011;39387;50.998;22.340;2023-02-13T04:46:38;35.05;;;13.70;;
53503;SDS011;39387;50.998;22.340;2023-02-13T04:49:05;30.63;;;12.52;;
53503;SDS011;39387;50.998;22.340;2023-02-13T04:51:32;30.15;;;10.75;;
53503;SDS011;39387;50.998;22.340;2023-02-13T04:53:59;34.28;;;11.50;;
53503;SDS011;39387;50.998;22.340;2023-02-13T04:56:27;27.42;;;10.98;;
53503;SDS011;39387;50.998;22.340;2023-02-13T04:58:55;24.38;;;9.95;;
53503;SDS011;39387;50.998;22.340;2023-02-13T05:01:23;25.65;;;9.50;;
53503;SDS011;39387;50.998;22.340;2023-02-13T05:03:50;25.63;;;8.57;;
53503;SDS011;39387;50.998;22.340;2023-02-13T05:06:17;27.58;;;9.38;;
53503;SDS011;39387;50.998;22.340;2023-02-13T05:08:44;28.05;;;9.40;;
53503;SDS011;39387;50.998;22.340;2023-02-13T05:11:12;25.70;;;10.63;;
53503;SDS011;39387;50.998;22.340;2023-02-13T05:13:39;24.05;;;9.45;;
53503;SDS011;39387;50.998;22.340;2023-02-13T05:16:07;24.40;;;9.90;;
53503;SDS011;39387;50.998;22.340;2023-02-13T05:18:35;24.55;;;10.00;;
53503;SDS011;39387;50.998;22.340;2023-02-13T05:21:02;26.33;;;9.85;;
53503;SDS011;39387;50.998;22.340;2023-02-13T05:23:47;24.25;;;10.15;;
53503;SDS011;39387;50.998;22.340;2023-02-13T05:26:14;30.13;;;10.30;;
53503;SDS011;39387;50.998;22.340;2023-02-13T05:28:41;26.00;;;10.15;;
53503;SDS011;39387;50.998;22.340;2023-02-13T05:31:28;23.63;;;9.88;;
53503;SDS011;39387;50.998;22.340;2023-02-13T05:33:55;26.25;;;10.55;;
53503;SDS011;39387;50.998;22.340;2023-02-13T05:36:22;26.42;;;10.68;;
53503;SDS011;39387;50.998;22.340;2023-02-13T05:38:49;29.08;;;10.25;;
53503;SDS011;39387;50.998;22.340;2023-02-13T05:41:17;27.38;;;10.25;;
53503;SDS011;39387;50.998;22.340;2023-02-13T05:43:44;32.15;;;11.57;;
53503;SDS011;39387;50.998;22.340;2023-02-13T05:46:11;28.95;;;12.30;;
53503;SDS011;39387;50.998;22.340;2023-02-13T05:48:40;32.13;;;11.05;;
53503;SDS011;39387;50.998;22.340;2023-02-13T05:51:08;31.45;;;12.07;;
53503;SDS011;39387;50.998;22.340;2023-02-13T05:53:35;31.42;;;9.95;;
53503;SDS011;39387;50.998;22.340;2023-02-13T05:56:03;24.65;;;10.35;;
53503;SDS011;39387;50.998;22.340;2023-02-13T05:58:31;24.88;;;10.05;;
53503;SDS011;39387;50.998;22.340;2023-02-13T06:00:59;24.85;;;10.60;;
53503;SDS011;39387;50.998;22.340;2023-02-13T06:03:27;31.50;;;11.25;;
53503;SDS011;39387;50.998;22.340;2023-02-13T06:05:57;24.02;;;9.13;;
53503;SDS011;39387;50.998;22.340;2023-02-13T06:08:24;24.83;;;10.77;;
53503;SDS011;39387;50.998;22.340;2023-02-13T06:10:52;23.98;;;9.85;;
53503;SDS011;39387;50.998;22.340;2023-02-13T06:13:19;24.33;;;10.32;;
53503;SDS011;39387;50.998;22.340;2023-02-13T06:15:46;27.42;;;10.02;;
53503;SDS011;39387;50.998;22.340;2023-02-13T06:18:15;27.73;;;10.63;;
53503;SDS011;39387;50.998;22.340;2023-02-13T06:20:42;23.50;;;9.82;;
53503;SDS011;39387;50.998;22.340;2023-02-13T06:23:11;24.73;;;9.70;;
53503;SDS011;39387;50.998;22.340;2023-02-13T06:25:39;27.98;;;10.65;;
53503;SDS011;39387;50.998;22.340;2023-02-13T06:28:06;24.88;;;10.38;;
53503;SDS011;39387;50.998;22.340;2023-02-13T06:30:34;28.15;;;10.30;;
53503;SDS011;39387;50.998;22.340;2023-02-13T06:33:01;25.58;;;10.20;;
53503;SDS011;39387;50.998;22.340;2023-02-13T06:35:28;26.48;;;10.63;;
53503;SDS011;39387;50.998;22.340;2023-02-13T06:37:56;28.55;;;10.82;;
53503;SDS011;39387;50.998;22.340;2023-02-13T06:40:25;29.90;;;10.15;;
53503;SDS011;39387;50.998;22.340;2023-02-13T06:42:52;25.65;;;10.25;;
53503;SDS011;39387;50.998;22.340;2023-02-13T06:45:19;20.33;;;9.43;;
53503;SDS011;39387;50.998;22.340;2023-02-13T06:47:47;25.55;;;10.52;;
53503;SDS011;39387;50.998;22.340;2023-02-13T06:50:15;21.50;;;9.68;;
53503;SDS011;39387;50.998;22.340;2023-02-13T06:52:45;24.83;;;11.00;;
53503;SDS011;39387;50.998;22.340;2023-02-13T06:55:13;28.38;;;10.32;;
53503;SDS011;39387;50.998;22.340;2023-02-13T06:57:42;25.08;;;10.40;;
53503;SDS011;39387;50.998;22.340;2023-02-13T07:00:10;20.63;;;9.02;;
53503;SDS011;39387;50.998;22.340;2023-02-13T07:02:38;22.02;;;9.32;;
53503;SDS011;39387;50.998;22.340;2023-02-13T07:05:06;17.38;;;8.38;;
53503;SDS011;39387;50.998;22.340;2023-02-13T07:07:33;15.63;;;7.15;;
53503;SDS011;39387;50.998;22.340;2023-02-13T07:10:01;14.55;;;7.72;;
53503;SDS011;39387;50.998;22.340;2023-02-13T07:12:31;19.63;;;9.10;;
53503;SDS011;39387;50.998;22.340;2023-02-13T07:15:00;21.20;;;9.07;;
53503;SDS011;39387;50.998;22.340;2023-02-13T07:17:27;21.88;;;9.30;;
53503;SDS011;39387;50.998;22.340;2023-02-13T07:19:56;19.80;;;8.15;;
53503;SDS011;39387;50.998;22.340;2023-02-13T07:22:23;17.48;;;7.97;;
53503;SDS011;39387;50.998;22.340;2023-02-13T07:24:50;19.83;;;8.10;;
53503;SDS011;39387;50.998;22.340;2023-02-13T07:27:18;18.65;;;7.68;;
53503;SDS011;39387;50.998;22.340;2023-02-13T07:29:45;20.98;;;8.57;;
53503;SDS011;39387;50.998;22.340;2023-02-13T07:32:14;22.02;;;9.00;;
53503;SDS011;39387;50.998;22.340;2023-02-13T07:34:42;16.58;;;7.18;;
53503;SDS011;39387;50.998;22.340;2023-02-13T07:37:09;17.05;;;7.22;;
53503;SDS011;39387;50.998;22.340;2023-02-13T07:39:37;16.48;;;7.57;;
53503;SDS011;39387;50.998;22.340;2023-02-13T07:42:04;15.95;;;7.80;;
53503;SDS011;39387;50.998;22.340;2023-02-13T07:44:32;15.30;;;7.28;;
53503;SDS011;39387;50.998;22.340;2023-02-13T07:46:59;17.50;;;7.18;;
53503;SDS011;39387;50.998;22.340;2023-02-13T07:49:28;14.70;;;6.93;;
53503;SDS011;39387;50.998;22.340;2023-02-13T07:51:55;16.13;;;7.13;;
53503;SDS011;39387;50.998;22.340;2023-02-13T07:54:23;16.90;;;7.80;;
53503;SDS011;39387;50.998;22.340;2023-02-13T07:56:50;14.90;;;7.10;;
53503;SDS011;39387;50.998;22.340;2023-02-13T07:59:18;14.43;;;6.65;;
53503;SDS011;39387;50.998;22.340;2023-02-13T08:01:45;15.43;;;7.38;;
53503;SDS011;39387;50.998;22.340;2023-02-13T08:04:13;13.85;;;6.38;;
53503;SDS011;39387;50.998;22.340;2023-02-13T08:06:41;13.27;;;6.72;;
53503;SDS011;39387;50.998;22.340;2023-02-13T08:09:11;13.88;;;7.10;;
53503;SDS011;39387;50.998;22.340;2023-02-13T08:12:02;14.13;;;6.88;;
53503;SDS011;39387;50.998;22.340;2023-02-13T08:14:31;14.52;;;6.75;;
53503;SDS011;39387;50.998;22.340;2023-02-13T08:16:58;12.00;;;6.45;;
53503;SDS011;39387;50.998;22.340;2023-02-13T08:19:26;12.70;;;5.72;;
53503;SDS011;39387;50.998;22.340;2023-02-13T08:21:55;13.20;;;5.57;;
53503;SDS011;39387;50.998;22.340;2023-02-13T08:24:23;13.52;;;6.53;;
53503;SDS011;39387;50.998;22.340;2023-02-13T08:26:50;13.50;;;6.45;;
53503;SDS011;39387;50.998;22.340;2023-02-13T08:29:17;14.32;;;6.93;;
53503;SDS011;39387;50.998;22.340;2023-02-13T08:31:45;13.93;;;6.53;;
53503;SDS011;39387;50.998;22.340;2023-02-13T08:34:12;14.60;;;7.03;;
53503;SDS011;39387;50.998;22.340;2023-02-13T08:36:39;13.32;;;6.78;;
53503;SDS011;39387;50.998;22.340;2023-02-13T08:39:09;14.63;;;6.90;;
53503;SDS011;39387;50.998;22.340;2023-02-13T08:41:36;11.00;;;5.78;;
53503;SDS011;39387;50.998;22.340;2023-02-13T08:44:04;13.30;;;6.57;;
53503;SDS011;39387;50.998;22.340;2023-02-13T08:46:31;12.20;;;6.05;;
53503;SDS011;39387;50.998;22.340;2023-02-13T08:48:59;13.60;;;6.07;;
53503;SDS011;39387;50.998;22.340;2023-02-13T08:51:26;12.05;;;6.53;;
53503;SDS011;39387;50.998;22.340;2023-02-13T08:53:53;13.73;;;6.28;;
53503;SDS011;39387;50.998;22.340;2023-02-13T08:56:22;13.52;;;6.72;;
53503;SDS011;39387;50.998;22.340;2023-02-13T08:58:49;12.57;;;5.80;;
53503;SDS011;39387;50.998;22.340;2023-02-13T09:01:17;15.45;;;6.13;;
53503;SDS011;39387;50.998;22.340;2023-02-13T09:03:44;11.82;;;5.65;;
53503;SDS011;39387;50.998;22.340;2023-02-13T09:06:12;13.10;;;6.32;;
53503;SDS011;39387;50.998;22.340;2023-02-13T09:08:39;10.70;;;5.63;;
53503;SDS011;39387;50.998;22.340;2023-02-13T09:11:08;11.63;;;5.60;;
53503;SDS011;39387;50.998;22.340;2023-02-13T09:13:37;12.32;;;5.25;;
53503;SDS011;39387;50.998;22.340;2023-02-13T09:16:05;11.50;;;5.90;;
53503;SDS011;39387;50.998;22.340;2023-02-13T09:18:33;11.27;;;5.93;;
53503;SDS011;39387;50.998;22.340;2023-02-13T09:21:02;13.77;;;6.20;;
53503;SDS011;39387;50.998;22.340;2023-02-13T09:23:31;10.93;;;5.28;;
53503;SDS011;39387;50.998;22.340;2023-02-13T09:25:59;11.73;;;6.28;;
53503;SDS011;39387;50.998;22.340;2023-02-13T09:28:28;12.15;;;5.78;;
53503;SDS011;39387;50.998;22.340;2023-02-13T09:30:57;13.02;;;6.10;;
53503;SDS011;39387;50.998;22.340;2023-02-13T09:33:24;13.07;;;6.38;;
53503;SDS011;39387;50.998;22.340;2023-02-13T09:35:52;10.45;;;5.72;;
53503;SDS011;39387;50.998;22.340;2023-02-13T09:38:19;10.60;;;5.68;;
53503;SDS011;39387;50.998;22.340;2023-02-13T09:40:47;9.82;;;5.30;;
53503;SDS011;39387;50.998;22.340;2023-02-13T09:43:21;14.03;;;6.23;;
53503;SDS011;39387;50.998;22.340;2023-02-13T09:45:54;11.38;;;5.35;;
53503;SDS011;39387;50.998;22.340;2023-02-13T09:48:26;9.80;;;5.25;;
53503;SDS011;39387;50.998;22.340;2023-02-13T09:50:55;11.38;;;5.50;;
53503;SDS011;39387;50.998;22.340;2023-02-13T09:53:23;9.18;;;4.90;;
53503;SDS011;39387;50.998;22.340;2023-02-13T09:55:54;9.90;;;5.15;;
53503;SDS011;39387;50.998;22.340;2023-02-13T09:58:34;12.45;;;4.88;;
53503;SDS011;39387;50.998;22.340;2023-02-13T10:04:06;6.95;;;4.30;;
53503;SDS011;39387;50.998;22.340;2023-02-13T10:06:42;9.90;;;4.57;;
53503;SDS011;39387;50.998;22.340;2023-02-13T10:09:18;8.90;;;5.03;;
53503;SDS011;39387;50.998;22.340;2023-02-13T10:12:01;9.55;;;4.75;;
53503;SDS011;39387;50.998;22.340;2023-02-13T10:14:36;9.02;;;4.72;;
53503;SDS011;39387;50.998;22.340;2023-02-13T10:17:10;10.38;;;4.55;;
53503;SDS011;39387;50.998;22.340;2023-02-13T10:19:39;8.18;;;4.25;;
53503;SDS011;39387;50.998;22.340;2023-02-13T10:22:09;7.53;;;3.83;;
53503;SDS011;39387;50.998;22.340;2023-02-13T10:24:40;10.30;;;4.47;;
53503;SDS011;39387;50.998;22.340;2023-02-13T10:27:14;9.38;;;4.75;;
53503;SDS011;39387;50.998;22.340;2023-02-13T10:29:46;9.20;;;4.78;;
53503;SDS011;39387;50.998;22.340;2023-02-13T10:32:41;9.73;;;4.65;;
53503;SDS011;39387;50.998;22.340;2023-02-13T10:35:19;9.98;;;4.85;;
53503;SDS011;39387;50.998;22.340;2023-02-13T10:37:50;9.18;;;4.82;;
53503;SDS011;39387;50.998;22.340;2023-02-13T10:40:19;9.02;;;4.90;;
53503;SDS011;39387;50.998;22.340;2023-02-13T10:42:49;7.65;;;4.43;;
53503;SDS011;39387;50.998;22.340;2023-02-13T10:45:25;9.20;;;4.35;;
53503;SDS011;39387;50.998;22.340;2023-02-13T10:48:11;9.02;;;4.10;;
53503;SDS011;39387;50.998;22.340;2023-02-13T10:50:46;10.38;;;4.82;;
53503;SDS011;39387;50.998;22.340;2023-02-13T10:53:18;7.07;;;3.95;;
53503;SDS011;39387;50.998;22.340;2023-02-13T10:56:10;9.05;;;4.72;;
53503;SDS011;39387;50.998;22.340;2023-02-13T10:58:46;9.55;;;4.68;;
53503;SDS011;39387;50.998;22.340;2023-02-13T11:01:20;9.98;;;4.25;;
53503;SDS011;39387;50.998;22.340;2023-02-13T11:04:01;8.40;;;4.15;;
53503;SDS011;39387;50.998;22.340;2023-02-13T11:06:32;8.07;;;4.25;;
53503;SDS011;39387;50.998;22.340;2023-02-13T11:09:02;8.73;;;4.38;;
53503;SDS011;39387;50.998;22.340;2023-02-13T11:11:32;10.57;;;5.00;;
53503;SDS011;39387;50.998;22.340;2023-02-13T11:14:07;9.50;;;3.78;;
53503;SDS011;39387;50.998;22.340;2023-02-13T11:16:39;10.23;;;4.00;;
53503;SDS011;39387;50.998;22.340;2023-02-13T11:19:16;11.82;;;4.53;;
53503;SDS011;39387;50.998;22.340;2023-02-13T11:21:45;7.88;;;4.40;;
53503;SDS011;39387;50.998;22.340;2023-02-13T11:24:17;8.63;;;4.55;;
53503;SDS011;39387;50.998;22.340;2023-02-13T11:26:46;10.75;;;4.68;;
53503;SDS011;39387;50.998;22.340;2023-02-13T11:29:17;33.83;;;19.17;;
53503;SDS011;39387;50.998;22.340;2023-02-13T11:31:48;11.02;;;5.70;;
53503;SDS011;39387;50.998;22.340;2023-02-13T11:34:30;9.20;;;4.70;;
53503;SDS011;39387;50.998;22.340;2023-02-13T11:37:07;8.85;;;4.60;;
53503;SDS011;39387;50.998;22.340;2023-02-13T11:39:42;8.32;;;4.00;;
53503;SDS011;39387;50.998;22.340;2023-02-13T11:42:11;7.70;;;4.13;;
53503;SDS011;39387;50.998;22.340;2023-02-13T11:44:40;8.27;;;4.20;;
53503;SDS011;39387;50.998;22.340;2023-02-13T11:47:07;6.65;;;4.07;;
53503;SDS011;39387;50.998;22.340;2023-02-13T11:49:37;10.95;;;4.50;;
53503;SDS011;39387;50.998;22.340;2023-02-13T11:52:05;8.77;;;4.93;;
53503;SDS011;39387;50.998;22.340;2023-02-13T11:54:37;7.25;;;4.50;;
53503;SDS011;39387;50.998;22.340;2023-02-13T11:57:16;8.25;;;4.20;;
53503;SDS011;39387;50.998;22.340;2023-02-13T11:59:46;6.88;;;4.07;;
53503;SDS011;39387;50.998;22.340;2023-02-13T12:02:16;8.27;;;4.20;;
53503;SDS011;39387;50.998;22.340;2023-02-13T12:04:46;7.25;;;4.18;;
53503;SDS011;39387;50.998;22.340;2023-02-13T12:07:16;10.43;;;4.20;;
53503;SDS011;39387;50.998;22.340;2023-02-13T12:09:46;7.20;;;3.80;;
53503;SDS011;39387;50.998;22.340;2023-02-13T12:12:17;5.75;;;3.78;;
53503;SDS011;39387;50.998;22.340;2023-02-13T12:14:53;9.55;;;4.97;;
53503;SDS011;39387;50.998;22.340;2023-02-13T12:17:22;7.63;;;4.72;;
53503;SDS011;39387;50.998;22.340;2023-02-13T12:19:53;8.43;;;4.35;;
53503;SDS011;39387;50.998;22.340;2023-02-13T12:22:24;7.45;;;3.85;;
53503;SDS011;39387;50.998;22.340;2023-02-13T12:27:59;7.93;;;4.40;;
53503;SDS011;39387;50.998;22.340;2023-02-13T12:36:48;6.85;;;4.03;;
53503;SDS011;39387;50.998;22.340;2023-02-13T12:39:24;7.32;;;3.97;;
53503;SDS011;39387;50.998;22.340;2023-02-13T12:44:57;7.97;;;4.00;;
53503;SDS011;39387;50.998;22.340;2023-02-13T12:47:29;9.77;;;4.60;;
53503;SDS011;39387;50.998;22.340;2023-02-13T12:52:56;9.38;;;4.50;;
53503;SDS011;39387;50.998;22.340;2023-02-13T12:55:50;7.72;;;3.88;;
53503;SDS011;39387;50.998;22.340;2023-02-13T12:58:40;6.97;;;4.25;;
53503;SDS011;39387;50.998;22.340;2023-02-13T13:01:25;6.40;;;3.70;;
53503;SDS011;39387;50.998;22.340;2023-02-13T13:04:08;6.80;;;3.55;;
53503;SDS011;39387;50.998;22.340;2023-02-13T13:06:47;6.25;;;4.05;;
53503;SDS011;39387;50.998;22.340;2023-02-13T13:09:34;6.63;;;3.95;;
53503;SDS011;39387;50.998;22.340;2023-02-13T13:12:21;8.40;;;4.18;;
53503;SDS011;39387;50.998;22.340;2023-02-13T13:14:59;7.57;;;4.00;;
53503;SDS011;39387;50.998;22.340;2023-02-13T13:17:37;8.38;;;3.85;;
53503;SDS011;39387;50.998;22.340;2023-02-13T13:20:34;7.20;;;4.07;;
53503;SDS011;39387;50.998;22.340;2023-02-13T13:23:17;10.43;;;4.40;;
53503;SDS011;39387;50.998;22.340;2023-02-13T13:25:49;8.50;;;4.65;;
53503;SDS011;39387;50.998;22.340;2023-02-13T13:28:23;8.30;;;4.35;;
53503;SDS011;39387;50.998;22.340;2023-02-13T13:30:53;6.78;;;4.15;;
53503;SDS011;39387;50.998;22.340;2023-02-13T13:33:22;4.05;;;3.08;;
53503;SDS011;39387;50.998;22.340;2023-02-13T13:35:52;5.93;;;3.67;;
53503;SDS011;39387;50.998;22.340;2023-02-13T13:38:28;7.97;;;3.63;;
53503;SDS011;39387;50.998;22.340;2023-02-13T13:41:14;5.28;;;3.20;;
53503;SDS011;39387;50.998;22.340;2023-02-13T13:43:57;4.72;;;3.08;;
53503;SDS011;39387;50.998;22.340;2023-02-13T13:46:31;5.53;;;2.88;;
53503;SDS011;39387;50.998;22.340;2023-02-13T13:49:11;4.97;;;2.97;;
53503;SDS011;39387;50.998;22.340;2023-02-13T13:51:43;6.35;;;4.45;;
53503;SDS011;39387;50.998;22.340;2023-02-13T13:54:24;13.18;;;8.63;;
53503;SDS011;39387;50.998;22.340;2023-02-13T13:57:05;19.45;;;11.13;;
53503;SDS011;39387;50.998;22.340;2023-02-13T14:05:24;8.88;;;5.05;;
53503;SDS011;39387;50.998;22.340;2023-02-13T14:07:53;11.40;;;5.30;;
53503;SDS011;39387;50.998;22.340;2023-02-13T14:13:34;32.80;;;12.55;;
53503;SDS011;39387;50.998;22.340;2023-02-13T14:16:03;36.47;;;12.55;;
53503;SDS011;39387;50.998;22.340;2023-02-13T14:18:34;28.95;;;11.45;;
53503;SDS011;39387;50.998;22.340;2023-02-13T14:21:03;22.10;;;10.00;;
53503;SDS011;39387;50.998;22.340;2023-02-13T14:23:44;13.65;;;7.15;;
53503;SDS011;39387;50.998;22.340;2023-02-13T14:26:19;16.70;;;8.95;;
53503;SDS011;39387;50.998;22.340;2023-02-13T14:32:13;23.88;;;10.68;;
53503;SDS011;39387;50.998;22.340;2023-02-13T14:34:48;18.92;;;9.68;;
53503;SDS011;39387;50.998;22.340;2023-02-13T14:37:20;16.60;;;8.77;;
53503;SDS011;39387;50.998;22.340;2023-02-13T14:43:00;14.52;;;7.45;;
53503;SDS011;39387;50.998;22.340;2023-02-13T14:45:47;14.75;;;7.47;;
53503;SDS011;39387;50.998;22.340;2023-02-13T14:48:16;16.38;;;7.15;;
53503;SDS011;39387;50.998;22.340;2023-02-13T14:50:44;13.32;;;6.78;;
53503;SDS011;39387;50.998;22.340;2023-02-13T14:53:21;12.15;;;7.43;;
53503;SDS011;39387;50.998;22.340;2023-02-13T14:55:54;11.85;;;5.97;;
53503;SDS011;39387;50.998;22.340;2023-02-13T14:58:24;11.65;;;5.90;;
53503;SDS011;39387;50.998;22.340;2023-02-13T15:00:57;12.13;;;5.68;;
53503;SDS011;39387;50.998;22.340;2023-02-13T15:03:29;11.93;;;5.70;;
53503;SDS011;39387;50.998;22.340;2023-02-13T15:06:02;10.95;;;5.90;;
53503;SDS011;39387;50.998;22.340;2023-02-13T15:08:33;11.85;;;6.10;;
53503;SDS011;39387;50.998;22.340;2023-02-13T15:11:04;10.60;;;5.60;;
53503;SDS011;39387;50.998;22.340;2023-02-13T15:13:52;11.82;;;5.70;;
53503;SDS011;39387;50.998;22.340;2023-02-13T15:16:21;9.77;;;5.18;;
53503;SDS011;39387;50.998;22.340;2023-02-13T15:18:49;9.80;;;5.30;;
53503;SDS011;39387;50.998;22.340;2023-02-13T15:21:20;11.68;;;5.70;;
53503;SDS011;39387;50.998;22.340;2023-02-13T15:23:49;10.45;;;5.93;;